createdAt,value
2023-06-29T00:01:36.103Z,1.70
2023-06-29T00:04:04.465Z,1.30
2023-06-29T00:06:38.003Z,1.50
2023-06-29T00:09:05.805Z,1.50
2023-06-29T00:11:34.526Z,1.50
2023-06-29T00:14:02.170Z,1.50
2023-06-29T00:16:32.141Z,1.80
2023-06-29T00:19:01.523Z,1.60
2023-06-29T00:21:29.841Z,1.80
2023-06-29T00:23:57.593Z,1.50
2023-06-29T00:26:27.679Z,1.60
2023-06-29T00:31:25.670Z,1.80
2023-06-29T00:33:53.487Z,1.70
2023-06-29T00:36:21.089Z,1.70
2023-06-29T00:38:50.213Z,1.80
2023-06-29T00:41:18.179Z,1.50
2023-06-29T00:43:46.858Z,1.70
2023-06-29T00:46:14.659Z,1.30
2023-06-29T00:48:42.347Z,1.70
2023-06-29T00:51:09.928Z,1.70
2023-06-29T00:53:38.539Z,1.80
2023-06-29T00:56:06.526Z,1.50
2023-06-29T00:58:34.386Z,1.50
2023-06-29T01:01:02.049Z,1.60
2023-06-29T01:03:32.253Z,1.80
2023-06-29T01:06:05.708Z,1.90
2023-06-29T01:08:37.244Z,1.60
2023-06-29T01:11:08.481Z,1.70
2023-06-29T01:13:37.492Z,1.40
2023-06-29T01:16:05.434Z,1.80
2023-06-29T01:18:34.089Z,1.70
2023-06-29T01:21:01.738Z,1.50
2023-06-29T01:23:38.326Z,1.30
2023-06-29T01:26:06.657Z,1.50
2023-06-29T01:28:39.657Z,1.50
2023-06-29T01:31:10.896Z,1.50
2023-06-29T01:33:38.505Z,1.80
2023-06-29T01:36:22.448Z,1.50
2023-06-29T01:38:54.793Z,1.50
2023-06-29T01:41:22.339Z,1.50
2023-06-29T01:43:49.919Z,1.30
2023-06-29T01:46:17.560Z,1.40
2023-06-29T01:48:45.925Z,1.30
2023-06-29T01:51:14.868Z,1.40
2023-06-29T01:53:42.526Z,1.50
2023-06-29T01:56:10.239Z,1.10
2023-06-29T01:58:37.837Z,1.20
2023-06-29T02:01:05.453Z,1.00
2023-06-29T02:03:34.336Z,1.00
2023-06-29T02:06:02.289Z,1.50
2023-06-29T02:08:29.836Z,1.40
2023-06-29T02:10:57.364Z,1.50
2023-06-29T02:13:24.923Z,1.20
2023-06-29T02:15:52.524Z,1.20
2023-06-29T02:18:21.978Z,1.30
2023-06-29T02:20:49.523Z,1.30
2023-06-29T02:23:17.185Z,1.10
2023-06-29T02:28:11.879Z,1.40
2023-06-29T02:30:39.434Z,1.60
2023-06-29T02:33:07.398Z,1.40
2023-06-29T02:35:35.053Z,1.80
2023-06-29T02:38:02.644Z,1.60
2023-06-29T02:40:43.226Z,1.40
2023-06-29T02:43:13.223Z,1.30
2023-06-29T02:45:41.498Z,1.70
2023-06-29T02:48:09.532Z,1.60
2023-06-29T02:50:37.364Z,1.60
2023-06-29T02:53:05.640Z,1.70
2023-06-29T02:55:33.898Z,2.00
2023-06-29T02:58:01.953Z,2.40
2023-06-29T03:00:29.759Z,2.00
2023-06-29T03:03:02.287Z,1.90
2023-06-29T03:05:54.662Z,2.30
2023-06-29T03:08:47.846Z,2.20
2023-06-29T03:11:15.680Z,2.20
2023-06-29T03:13:43.226Z,2.20
2023-06-29T03:16:11.355Z,2.40
2023-06-29T03:18:39.176Z,2.40
2023-06-29T03:21:16.291Z,2.40
2023-06-29T03:23:46.156Z,2.20
2023-06-29T03:26:14.487Z,2.00
2023-06-29T03:28:42.169Z,2.60
2023-06-29T03:31:09.749Z,2.20
2023-06-29T03:33:37.407Z,2.50
2023-06-29T03:36:06.553Z,2.30
2023-06-29T03:38:34.118Z,2.00
2023-06-29T03:41:01.723Z,2.40
2023-06-29T03:43:29.277Z,2.30
2023-06-29T03:45:59.468Z,2.20
2023-06-29T03:48:30.026Z,2.60
2023-06-29T03:50:58.337Z,2.30
2023-06-29T03:53:25.983Z,2.90
2023-06-29T03:55:53.577Z,3.20
2023-06-29T03:58:21.144Z,2.80
2023-06-29T04:00:48.769Z,2.70
2023-06-29T04:03:16.563Z,3.30
2023-06-29T04:05:44.610Z,3.60
2023-06-29T04:08:23.890Z,3.20
2023-06-29T04:10:51.625Z,3.10
2023-06-29T04:13:46.793Z,3.70
2023-06-29T04:16:12.158Z,3.50
2023-06-29T04:18:39.737Z,3.80
2023-06-29T04:21:07.593Z,3.60
2023-06-29T04:23:38.416Z,3.60
2023-06-29T04:26:06.136Z,3.70
2023-06-29T04:28:35.666Z,4.10
2023-06-29T04:31:03.704Z,3.70
2023-06-29T04:33:32.103Z,3.70
2023-06-29T04:35:59.670Z,3.30
2023-06-29T04:38:29.062Z,3.70
2023-06-29T04:41:04.955Z,3.90
2023-06-29T04:43:33.025Z,3.70
2023-06-29T04:46:01.799Z,3.40
2023-06-29T04:48:38.880Z,3.80
2023-06-29T04:51:07.756Z,4.00
2023-06-29T04:53:35.927Z,3.80
2023-06-29T04:56:03.613Z,3.50
2023-06-29T04:58:31.287Z,4.00
2023-06-29T05:00:58.891Z,4.70
2023-06-29T05:03:27.619Z,4.00
2023-06-29T05:05:55.286Z,3.80
2023-06-29T05:08:23.198Z,4.00
2023-06-29T05:10:51.517Z,4.00
2023-06-29T05:13:19.123Z,4.10
2023-06-29T05:15:49.234Z,3.80
2023-06-29T05:18:17.080Z,3.80
2023-06-29T05:20:44.714Z,3.80
2023-06-29T05:23:12.978Z,4.40
2023-06-29T05:25:42.415Z,4.10
2023-06-29T05:28:10.238Z,3.70
2023-06-29T05:30:37.954Z,3.60
2023-06-29T05:33:05.594Z,4.10
2023-06-29T05:35:35.632Z,4.40
2023-06-29T05:38:03.685Z,3.80
2023-06-29T05:40:32.469Z,4.10
2023-06-29T05:43:00.107Z,4.80
2023-06-29T05:45:27.670Z,4.40
2023-06-29T05:47:56.782Z,4.10
2023-06-29T05:50:24.528Z,3.60
2023-06-29T05:52:52.347Z,3.30
2023-06-29T05:55:20.925Z,3.20
2023-06-29T05:57:48.570Z,3.30
2023-06-29T06:00:17.289Z,2.90
2023-06-29T06:02:46.151Z,3.30
2023-06-29T06:05:14.077Z,3.30
2023-06-29T06:07:41.659Z,3.40
2023-06-29T06:10:09.779Z,3.80
2023-06-29T06:12:38.589Z,3.80
2023-06-29T06:15:08.904Z,4.00
2023-06-29T06:17:36.738Z,4.60
2023-06-29T06:20:06.446Z,4.50
2023-06-29T06:22:35.470Z,4.10
2023-06-29T06:25:03.713Z,4.10
2023-06-29T06:27:31.531Z,4.50
2023-06-29T06:29:59.169Z,4.60
2023-06-29T06:32:28.292Z,4.30
2023-06-29T06:34:56.217Z,4.50
2023-06-29T06:37:23.754Z,4.40
2023-06-29T06:39:51.950Z,4.60
2023-06-29T06:42:19.491Z,4.40
2023-06-29T06:44:54.064Z,3.90
2023-06-29T06:47:22.199Z,4.10
2023-06-29T06:49:49.799Z,4.20
2023-06-29T06:52:17.521Z,4.30
2023-06-29T06:54:52.095Z,4.10
2023-06-29T06:57:20.273Z,4.30
2023-06-29T06:59:47.826Z,4.40
2023-06-29T07:02:15.520Z,4.30
2023-06-29T07:04:43.452Z,4.00
2023-06-29T07:07:11.095Z,4.20
2023-06-29T07:09:39.090Z,4.40
2023-06-29T07:12:07.267Z,4.40
2023-06-29T07:14:35.155Z,3.70
2023-06-29T07:17:03.138Z,4.30
2023-06-29T07:24:32.543Z,3.80
2023-06-29T07:27:00.725Z,4.40
2023-06-29T07:29:29.012Z,4.50
2023-06-29T07:31:56.608Z,4.20
2023-06-29T07:34:25.343Z,4.10
2023-06-29T07:36:53.158Z,4.50
2023-06-29T07:39:20.741Z,4.30
2023-06-29T07:41:49.667Z,4.70
2023-06-29T07:44:17.256Z,4.40
2023-06-29T07:46:44.886Z,4.40
2023-06-29T07:49:15.262Z,4.20
2023-06-29T07:51:43.008Z,3.90
2023-06-29T07:54:10.667Z,4.10
2023-06-29T07:59:12.893Z,4.10
2023-06-29T08:01:40.877Z,4.00
2023-06-29T08:04:09.294Z,3.70
2023-06-29T08:09:13.464Z,3.60
2023-06-29T08:11:40.995Z,3.70
2023-06-29T08:14:08.536Z,4.20
2023-06-29T08:16:36.377Z,3.80
2023-06-29T08:19:04.169Z,3.60
2023-06-29T08:21:31.878Z,4.20
2023-06-29T08:23:59.649Z,4.20
2023-06-29T08:26:27.414Z,4.70
2023-06-29T08:28:54.973Z,4.30
2023-06-29T08:31:22.557Z,4.60
2023-06-29T08:33:56.633Z,4.50
2023-06-29T08:36:31.040Z,4.50
2023-06-29T08:39:02.528Z,4.30
2023-06-29T08:41:30.397Z,4.40
2023-06-29T08:43:58.831Z,4.20
2023-06-29T08:46:27.077Z,4.30
2023-06-29T08:48:54.800Z,4.10
2023-06-29T08:51:22.960Z,4.20
2023-06-29T08:53:52.021Z,4.70
2023-06-29T08:56:20.603Z,4.60
2023-06-29T08:58:48.679Z,3.90
2023-06-29T09:01:17.480Z,4.00
2023-06-29T09:03:45.710Z,4.40
2023-06-29T09:06:15.606Z,3.90
2023-06-29T09:08:43.227Z,3.20
2023-06-29T09:11:10.849Z,4.00
2023-06-29T09:13:38.616Z,3.50
2023-06-29T09:16:06.294Z,3.60
2023-06-29T09:18:34.240Z,3.50
2023-06-29T09:21:02.171Z,3.20
2023-06-29T09:23:34.668Z,3.40
2023-06-29T09:26:04.830Z,3.40
2023-06-29T09:28:36.525Z,3.20
2023-06-29T09:31:09.908Z,3.10
2023-06-29T09:33:37.562Z,2.90
2023-06-29T09:36:09.717Z,3.00
2023-06-29T09:38:38.847Z,3.30
2023-06-29T09:41:06.579Z,3.60
2023-06-29T09:43:34.143Z,3.30
2023-06-29T09:46:16.018Z,3.20
2023-06-29T09:51:22.337Z,3.60
2023-06-29T09:53:50.144Z,3.30
2023-06-29T09:56:18.586Z,3.40
2023-06-29T09:58:47.768Z,3.80
2023-06-29T10:01:17.395Z,3.70
2023-06-29T10:06:16.504Z,3.90
2023-06-29T10:08:44.055Z,3.10
2023-06-29T10:11:12.961Z,3.30
2023-06-29T10:13:45.088Z,4.40
2023-06-29T10:16:13.090Z,3.60
2023-06-29T10:18:42.742Z,3.80
2023-06-29T10:21:10.381Z,4.00
2023-06-29T10:23:37.977Z,3.70
2023-06-29T10:26:05.942Z,3.90
2023-06-29T10:28:33.819Z,3.40
2023-06-29T10:31:01.474Z,3.60
2023-06-29T10:33:29.265Z,3.30
2023-06-29T10:36:02.661Z,3.90
2023-06-29T10:38:34.876Z,3.80
2023-06-29T10:41:02.670Z,4.50
2023-06-29T10:43:30.259Z,4.70
2023-06-29T10:45:58.034Z,4.10
2023-06-29T10:48:47.113Z,3.60
2023-06-29T10:51:15.239Z,3.80
2023-06-29T10:53:42.903Z,3.10
2023-06-29T10:56:28.793Z,3.00
2023-06-29T10:58:56.496Z,3.20
2023-06-29T11:01:24.110Z,3.30
2023-06-29T11:03:53.011Z,3.40
2023-06-29T11:06:33.175Z,2.90
2023-06-29T11:09:14.840Z,3.50
2023-06-29T11:11:48.671Z,3.10
2023-06-29T11:14:16.621Z,3.50
2023-06-29T11:16:44.422Z,3.70
2023-06-29T11:19:13.651Z,3.30
2023-06-29T11:21:42.244Z,3.50
2023-06-29T11:24:11.316Z,3.60
2023-06-29T11:26:39.016Z,3.70
2023-06-29T11:29:09.379Z,4.00
2023-06-29T11:31:37.394Z,3.00
2023-06-29T11:34:05.052Z,3.50
2023-06-29T11:36:38.129Z,3.60
2023-06-29T11:39:05.874Z,3.60
2023-06-29T11:41:33.435Z,3.50
2023-06-29T11:44:01.745Z,3.50
2023-06-29T11:46:35.625Z,3.40
2023-06-29T11:49:04.592Z,3.80
2023-06-29T11:51:33.080Z,3.90
2023-06-29T11:54:00.995Z,3.70
2023-06-29T11:56:36.749Z,3.50
2023-06-29T11:59:11.599Z,3.60
2023-06-29T12:01:44.239Z,3.30
2023-06-29T12:04:14.276Z,2.80
2023-06-29T12:06:55.362Z,2.70
2023-06-29T12:09:33.216Z,2.90
2023-06-29T12:12:03.221Z,3.10
2023-06-29T12:14:31.287Z,2.70
2023-06-29T12:19:34.717Z,3.10
2023-06-29T12:22:02.686Z,2.50
2023-06-29T12:24:32.023Z,2.50
2023-06-29T12:27:01.748Z,2.70
2023-06-29T12:29:29.513Z,2.90
2023-06-29T12:32:03.302Z,3.20
2023-06-29T12:34:32.951Z,16.00
2023-06-29T12:37:01.569Z,5.80
2023-06-29T12:39:29.796Z,3.20
2023-06-29T12:41:57.479Z,3.20
2023-06-29T12:44:25.287Z,2.80
2023-06-29T12:46:52.887Z,2.80
2023-06-29T12:49:21.467Z,2.70
2023-06-29T12:51:49.330Z,2.70
2023-06-29T12:54:17.006Z,2.60
2023-06-29T12:56:44.583Z,2.50
2023-06-29T12:59:14.170Z,2.30
2023-06-29T13:01:49.079Z,2.20
2023-06-29T13:04:16.711Z,2.30
2023-06-29T13:06:44.459Z,2.00
2023-06-29T13:09:12.039Z,2.00
2023-06-29T13:11:39.627Z,2.20
2023-06-29T13:14:07.240Z,2.30
2023-06-29T13:16:35.522Z,1.90
2023-06-29T13:19:03.230Z,2.10
2023-06-29T13:21:30.819Z,2.50
2023-06-29T13:23:58.665Z,2.30
2023-06-29T13:26:26.306Z,2.40
2023-06-29T13:28:53.895Z,2.50
2023-06-29T13:31:21.593Z,2.50
2023-06-29T13:33:49.432Z,2.60
2023-06-29T13:36:17.598Z,2.40
2023-06-29T13:38:45.704Z,2.60
2023-06-29T13:41:13.292Z,2.30
2023-06-29T13:43:46.490Z,2.50
2023-06-29T13:46:14.025Z,2.60
2023-06-29T13:48:41.651Z,3.50
2023-06-29T13:51:09.305Z,2.80
2023-06-29T13:53:39.595Z,3.00
2023-06-29T13:56:07.200Z,2.70
2023-06-29T13:58:34.813Z,2.90
2023-06-29T14:01:02.547Z,2.10
2023-06-29T14:03:30.274Z,2.30
2023-06-29T14:05:58.094Z,2.40
2023-06-29T14:08:25.800Z,2.40
2023-06-29T14:10:53.501Z,2.60
2023-06-29T14:13:21.115Z,2.40
2023-06-29T14:15:49.050Z,2.50
2023-06-29T14:18:16.726Z,2.50
2023-06-29T14:20:44.684Z,2.30
2023-06-29T14:23:13.918Z,2.00
2023-06-29T14:25:41.505Z,2.30
2023-06-29T14:28:09.139Z,2.40
2023-06-29T14:30:36.850Z,2.40
2023-06-29T14:33:12.828Z,2.50
2023-06-29T14:35:48.096Z,2.30
2023-06-29T14:38:15.812Z,2.30
2023-06-29T14:40:43.514Z,2.70
2023-06-29T14:45:35.292Z,2.50
2023-06-29T14:48:03.290Z,2.70
2023-06-29T14:50:30.946Z,2.20
2023-06-29T14:52:58.575Z,2.70
2023-06-29T14:55:27.906Z,2.30
2023-06-29T14:57:55.446Z,2.40
2023-06-29T15:00:23.585Z,2.50
2023-06-29T15:02:51.206Z,2.80
2023-06-29T15:05:19.067Z,2.50
2023-06-29T15:07:46.696Z,2.80
2023-06-29T15:10:14.592Z,2.50
2023-06-29T15:12:42.343Z,2.50
2023-06-29T15:15:13.197Z,2.50
2023-06-29T15:17:43.561Z,2.50
2023-06-29T15:20:11.927Z,2.80
2023-06-29T15:22:39.614Z,2.40
2023-06-29T15:25:08.319Z,2.80
2023-06-29T15:27:36.185Z,2.60
2023-06-29T15:30:04.405Z,3.00
2023-06-29T15:32:33.652Z,2.50
2023-06-29T15:35:02.024Z,2.90
2023-06-29T15:37:31.501Z,2.70
2023-06-29T15:39:59.095Z,2.90
2023-06-29T15:42:29.411Z,2.80
2023-06-29T15:44:57.974Z,2.90
2023-06-29T15:47:28.387Z,3.20
2023-06-29T15:49:56.139Z,2.80
2023-06-29T15:52:23.743Z,2.90
2023-06-29T15:54:51.415Z,2.90
2023-06-29T15:57:19.261Z,2.70
2023-06-29T15:59:46.842Z,2.90
2023-06-29T16:02:14.460Z,2.80
2023-06-29T16:04:42.446Z,3.00
2023-06-29T16:07:10.126Z,3.40
2023-06-29T16:09:38.588Z,4.00
2023-06-29T16:12:06.849Z,2.70
2023-06-29T16:14:34.490Z,3.00
2023-06-29T16:17:17.873Z,2.90
2023-06-29T16:19:46.842Z,3.20
2023-06-29T16:22:14.705Z,3.20
2023-06-29T16:24:45.721Z,3.10
2023-06-29T16:27:13.374Z,3.00
2023-06-29T16:29:41.125Z,3.10
2023-06-29T16:32:09.977Z,2.80
2023-06-29T16:34:38.015Z,3.10
2023-06-29T16:37:07.847Z,3.10
2023-06-29T16:39:37.029Z,3.20
2023-06-29T16:42:05.360Z,3.30
2023-06-29T16:44:32.961Z,3.30
2023-06-29T16:47:01.818Z,3.60
2023-06-29T16:49:29.590Z,3.90
2023-06-29T16:51:57.122Z,3.30
2023-06-29T16:54:24.791Z,2.50
2023-06-29T16:56:52.899Z,2.60
2023-06-29T16:59:20.670Z,2.70
2023-06-29T17:01:48.579Z,3.00
2023-06-29T17:04:16.268Z,3.10
2023-06-29T17:06:44.110Z,2.70
2023-06-29T17:09:12.038Z,2.80
2023-06-29T17:11:39.778Z,2.50
2023-06-29T17:14:07.687Z,3.10
2023-06-29T17:16:35.542Z,2.50
2023-06-29T17:19:03.944Z,3.10
2023-06-29T17:21:37.827Z,2.60
2023-06-29T17:24:06.945Z,2.90
2023-06-29T17:26:34.700Z,3.10
2023-06-29T17:29:02.251Z,3.10
2023-06-29T17:31:30.621Z,2.90
2023-06-29T17:33:58.825Z,2.80
2023-06-29T17:36:28.328Z,3.20
2023-06-29T17:38:56.490Z,3.40
2023-06-29T17:41:24.098Z,3.40
2023-06-29T17:43:51.671Z,3.00
2023-06-29T17:46:19.312Z,3.00
2023-06-29T17:48:46.990Z,2.80
2023-06-29T17:51:19.012Z,3.20
2023-06-29T17:53:47.432Z,2.90
2023-06-29T17:56:15.876Z,3.20
2023-06-29T17:58:46.862Z,3.10
2023-06-29T18:01:15.011Z,2.60
2023-06-29T18:03:43.157Z,3.20
2023-06-29T18:06:13.034Z,3.60
2023-06-29T18:08:40.965Z,3.60
2023-06-29T18:11:09.364Z,3.60
2023-06-29T18:13:37.092Z,3.60
2023-06-29T18:16:05.495Z,3.90
2023-06-29T18:18:34.992Z,3.60
2023-06-29T18:21:03.276Z,4.00
2023-06-29T18:23:30.810Z,3.70
2023-06-29T18:25:58.419Z,3.20
2023-06-29T18:28:25.982Z,3.70
2023-06-29T18:30:53.549Z,3.80
2023-06-29T18:33:21.158Z,4.20
2023-06-29T18:35:49.043Z,4.10
2023-06-29T18:38:17.235Z,3.80
2023-06-29T18:40:45.245Z,3.90
2023-06-29T18:43:13.293Z,3.60
2023-06-29T18:45:44.567Z,4.10
2023-06-29T18:48:12.728Z,3.80
2023-06-29T18:50:40.489Z,3.60
2023-06-29T18:53:13.137Z,3.90
2023-06-29T18:56:21.493Z,3.90
2023-06-29T18:58:51.603Z,3.50
2023-06-29T19:01:20.450Z,4.00
2023-06-29T19:04:08.695Z,4.20
2023-06-29T19:06:40.190Z,4.10
2023-06-29T19:09:07.762Z,4.30
2023-06-29T19:11:35.310Z,3.90
2023-06-29T19:14:02.881Z,3.50
2023-06-29T19:16:30.446Z,4.00
2023-06-29T19:18:58.846Z,3.90
2023-06-29T19:21:39.175Z,3.80
2023-06-29T19:24:14.459Z,4.30
2023-06-29T19:26:42.120Z,4.10
2023-06-29T19:29:10.976Z,4.00
2023-06-29T19:31:39.809Z,4.00
2023-06-29T19:34:09.010Z,4.10
2023-06-29T19:36:36.563Z,4.10
2023-06-29T19:39:04.211Z,4.20
2023-06-29T19:41:31.760Z,3.80
2023-06-29T19:44:00.855Z,3.80
2023-06-29T19:46:28.709Z,3.90
2023-06-29T19:48:56.436Z,4.20
2023-06-29T19:51:24.062Z,3.70
2023-06-29T19:53:51.647Z,3.60
2023-06-29T19:56:19.237Z,3.50
2023-06-29T19:58:46.850Z,4.20
2023-06-29T20:01:14.403Z,3.90
2023-06-29T20:03:42.013Z,3.70
2023-06-29T20:06:11.124Z,4.10
2023-06-29T20:08:38.757Z,3.70
2023-06-29T20:11:06.303Z,3.80
2023-06-29T20:13:35.280Z,3.80
2023-06-29T20:16:03.102Z,4.00
2023-06-29T20:18:30.733Z,3.60
2023-06-29T20:20:58.660Z,3.70
2023-06-29T20:23:26.212Z,3.80
2023-06-29T20:25:53.745Z,3.30
2023-06-29T20:28:21.751Z,3.40
2023-06-29T20:30:49.454Z,3.40
2023-06-29T20:33:17.081Z,3.80
2023-06-29T20:35:44.933Z,4.20
2023-06-29T20:38:12.815Z,3.50
2023-06-29T20:40:41.312Z,3.40
2023-06-29T20:43:08.996Z,3.90
2023-06-29T20:45:36.974Z,3.40
2023-06-29T20:48:05.351Z,3.70
2023-06-29T20:50:33.322Z,4.00
2023-06-29T20:53:01.012Z,3.60
2023-06-29T20:55:28.619Z,4.00
2023-06-29T20:57:59.531Z,4.10
2023-06-29T21:00:27.156Z,3.90
2023-06-29T21:02:54.785Z,4.10
2023-06-29T21:05:24.194Z,3.70
2023-06-29T21:07:53.436Z,3.20
2023-06-29T21:10:21.254Z,3.70
2023-06-29T21:12:49.720Z,3.90
2023-06-29T21:15:17.785Z,3.90
2023-06-29T21:17:45.710Z,3.80
2023-06-29T21:20:13.996Z,3.80
2023-06-29T21:22:42.169Z,3.70
2023-06-29T21:25:10.938Z,4.40
2023-06-29T21:27:38.526Z,4.00
2023-06-29T21:30:06.973Z,3.80
2023-06-29T21:32:34.919Z,3.80
2023-06-29T21:35:04.303Z,3.50
2023-06-29T21:37:32.400Z,3.90
2023-06-29T21:40:00.013Z,3.90
2023-06-29T21:42:29.388Z,3.60
2023-06-29T21:45:00.945Z,4.10
2023-06-29T21:47:28.577Z,4.00
2023-06-29T21:49:56.416Z,3.70
2023-06-29T21:52:23.986Z,4.40
2023-06-29T21:54:51.554Z,3.90
2023-06-29T21:57:19.090Z,4.30
2023-06-29T21:59:46.630Z,4.10
2023-06-29T22:02:14.207Z,3.80
2023-06-29T22:04:41.988Z,4.20
2023-06-29T22:07:16.649Z,3.70
2023-06-29T22:09:44.733Z,3.70
2023-06-29T22:12:12.591Z,4.50
2023-06-29T22:14:40.917Z,3.90
2023-06-29T22:17:08.716Z,4.30
2023-06-29T22:19:38.231Z,4.00
2023-06-29T22:22:07.263Z,4.30
2023-06-29T22:24:34.902Z,4.00
2023-06-29T22:27:02.507Z,4.20
2023-06-29T22:29:30.034Z,3.90
2023-06-29T22:31:57.660Z,3.90
2023-06-29T22:34:25.200Z,4.00
2023-06-29T22:36:56.183Z,3.60
2023-06-29T22:39:24.525Z,4.00
2023-06-29T22:41:52.091Z,4.50
2023-06-29T22:44:19.687Z,3.90
2023-06-29T22:46:47.278Z,3.60
2023-06-29T22:49:14.957Z,4.00
2023-06-29T22:51:42.575Z,4.00
2023-06-29T22:54:10.369Z,4.00
2023-06-29T22:56:37.938Z,4.00
2023-06-29T22:59:08.248Z,4.60
2023-06-29T23:01:36.296Z,3.80
2023-06-29T23:04:05.787Z,4.20
2023-06-29T23:06:34.078Z,3.90
2023-06-29T23:09:04.700Z,4.00
2023-06-29T23:11:32.689Z,4.10
2023-06-29T23:14:00.273Z,4.00
2023-06-29T23:16:27.938Z,4.10
2023-06-29T23:18:55.556Z,4.20
2023-06-29T23:21:23.218Z,3.80
2023-06-29T23:23:54.430Z,4.30
2023-06-29T23:26:23.282Z,3.60
2023-06-29T23:28:51.999Z,3.70
2023-06-29T23:31:19.920Z,4.30
2023-06-29T23:33:48.112Z,4.40
2023-06-29T23:36:25.381Z,4.10
2023-06-29T23:38:54.567Z,4.10
2023-06-29T23:41:23.443Z,3.00
2023-06-29T23:43:50.988Z,3.60
2023-06-29T23:46:18.602Z,4.30
2023-06-29T23:48:46.271Z,3.60
2023-06-29T23:51:13.823Z,4.00
2023-06-29T23:53:41.340Z,3.90
2023-06-29T23:56:08.971Z,4.10
2023-06-29T23:58:36.557Z,4.20
